createdAt,value
2023-04-08T00:00:54.657Z,10.35
2023-04-08T00:03:21.581Z,10.34
2023-04-08T00:05:48.192Z,10.27
2023-04-08T00:08:14.613Z,10.28
2023-04-08T00:10:41.196Z,10.24
2023-04-08T00:13:07.657Z,10.15
2023-04-08T00:15:34.229Z,10.12
2023-04-08T00:18:01.113Z,10.13
2023-04-08T00:20:27.622Z,10.10
2023-04-08T00:22:54.086Z,10.11
2023-04-08T00:25:21.435Z,10.09
2023-04-08T00:27:48.695Z,10.11
2023-04-08T00:30:15.779Z,10.12
2023-04-08T00:32:42.172Z,10.11
2023-04-08T00:35:08.899Z,10.14
2023-04-08T00:37:35.414Z,10.19
2023-04-08T00:40:02.026Z,10.22
2023-04-08T00:42:30.759Z,10.23
2023-04-08T00:44:57.340Z,10.20
2023-04-08T00:47:24.172Z,10.24
2023-04-08T00:49:51.084Z,10.24
2023-04-08T00:52:17.531Z,10.22
2023-04-08T00:54:43.984Z,10.25
2023-04-08T00:57:10.520Z,10.16
2023-04-08T00:59:37.133Z,10.21
2023-04-08T01:02:12.587Z,10.17
2023-04-08T01:04:55.986Z,10.09
2023-04-08T01:07:27.025Z,10.15
2023-04-08T01:09:56.556Z,10.12
2023-04-08T01:12:32.029Z,10.16
2023-04-08T01:15:03.255Z,10.17
2023-04-08T01:17:31.307Z,10.17
2023-04-08T01:20:03.999Z,10.19
2023-04-08T01:22:49.005Z,10.20
2023-04-08T01:25:19.837Z,10.25
2023-04-08T01:27:48.476Z,10.32
2023-04-08T01:30:17.219Z,10.29
2023-04-08T01:32:44.926Z,10.22
2023-04-08T01:35:11.691Z,10.13
2023-04-08T01:37:39.740Z,10.18
2023-04-08T01:40:09.003Z,10.26
2023-04-08T01:42:36.653Z,10.28
2023-04-08T01:45:04.528Z,10.31
2023-04-08T01:47:31.482Z,10.23
2023-04-08T01:50:00.440Z,10.19
2023-04-08T01:52:29.165Z,10.18
2023-04-08T01:54:55.763Z,10.19
2023-04-08T01:57:31.850Z,10.17
2023-04-08T02:00:01.776Z,10.14
2023-04-08T02:02:29.665Z,10.19
2023-04-08T02:04:56.222Z,10.24
2023-04-08T02:07:22.955Z,10.26
2023-04-08T02:09:50.612Z,10.22
2023-04-08T02:12:17.490Z,10.26
2023-04-08T02:14:44.052Z,10.22
2023-04-08T02:17:14.159Z,10.17
2023-04-08T02:19:46.782Z,10.20
2023-04-08T02:22:19.973Z,10.21
2023-04-08T02:24:47.229Z,10.22
2023-04-08T02:27:14.125Z,10.29
2023-04-08T02:29:42.275Z,10.32
2023-04-08T02:32:12.316Z,10.29
2023-04-08T02:34:41.236Z,10.32
2023-04-08T02:37:08.683Z,10.41
2023-04-08T02:39:35.559Z,10.40
2023-04-08T02:42:02.003Z,10.35
2023-04-08T02:44:28.418Z,10.34
2023-04-08T02:46:54.811Z,10.37
2023-04-08T02:49:21.286Z,10.41
2023-04-08T02:51:47.688Z,10.34
2023-04-08T02:54:14.068Z,10.33
2023-04-08T02:56:40.560Z,10.31
2023-04-08T02:59:07.033Z,10.27
2023-04-08T03:01:33.551Z,10.20
2023-04-08T03:04:00.059Z,10.22
2023-04-08T03:06:27.014Z,10.20
2023-04-08T03:08:53.405Z,10.16
2023-04-08T03:11:20.042Z,10.16
2023-04-08T03:13:46.747Z,10.18
2023-04-08T03:16:13.146Z,10.20
2023-04-08T03:18:39.598Z,10.16
2023-04-08T03:21:06.074Z,10.15
2023-04-08T03:23:32.455Z,10.11
2023-04-08T03:25:58.929Z,10.06
2023-04-08T03:28:25.324Z,10.04
2023-04-08T03:30:51.741Z,10.04
2023-04-08T03:33:18.299Z,10.08
2023-04-08T03:35:44.772Z,10.02
2023-04-08T03:38:11.696Z,10.04
2023-04-08T03:40:38.074Z,10.00
2023-04-08T03:43:06.582Z,10.03
2023-04-08T03:45:32.985Z,10.00
2023-04-08T03:47:59.450Z,10.04
2023-04-08T03:50:26.022Z,10.04
2023-04-08T03:52:52.523Z,10.01
2023-04-08T03:55:18.981Z,10.02
2023-04-08T03:57:45.917Z,10.04
2023-04-08T04:00:12.961Z,10.03
2023-04-08T04:02:39.518Z,10.03
2023-04-08T04:05:06.556Z,9.99
2023-04-08T04:07:33.113Z,9.92
2023-04-08T04:09:59.474Z,9.87
2023-04-08T04:12:26.558Z,9.89
2023-04-08T04:14:52.959Z,9.89
2023-04-08T04:17:19.368Z,9.91
2023-04-08T04:19:45.820Z,9.92
2023-04-08T04:22:12.268Z,9.93
2023-04-08T04:24:38.637Z,9.94
2023-04-08T04:27:05.322Z,9.88
2023-04-08T04:29:32.865Z,9.87
2023-04-08T04:31:59.232Z,9.89
2023-04-08T04:34:25.782Z,9.92
2023-04-08T04:36:52.286Z,9.91
2023-04-08T04:39:18.674Z,9.91
2023-04-08T04:41:45.371Z,9.91
2023-04-08T04:44:12.085Z,9.87
2023-04-08T04:46:38.702Z,9.83
2023-04-08T04:49:05.390Z,9.88
2023-04-08T04:51:33.262Z,9.89
2023-04-08T04:53:59.627Z,9.82
2023-04-08T04:56:27.061Z,9.82
2023-04-08T04:58:53.412Z,9.86
2023-04-08T05:01:19.973Z,9.85
2023-04-08T05:03:46.556Z,9.83
2023-04-08T05:06:13.081Z,9.81
2023-04-08T05:08:39.539Z,9.82
2023-04-08T05:11:10.336Z,9.83
2023-04-08T05:13:36.759Z,9.84
2023-04-08T05:16:03.191Z,9.87
2023-04-08T05:18:29.599Z,9.91
2023-04-08T05:20:55.934Z,9.92
2023-04-08T05:23:22.366Z,9.92
2023-04-08T05:25:48.844Z,9.92
2023-04-08T05:28:15.510Z,9.97
2023-04-08T05:30:41.981Z,10.06
2023-04-08T05:33:08.494Z,10.03
2023-04-08T05:35:36.122Z,10.11
2023-04-08T05:38:02.658Z,10.23
2023-04-08T05:40:29.111Z,10.30
2023-04-08T05:42:55.855Z,10.36
2023-04-08T05:45:22.363Z,10.48
2023-04-08T05:47:48.818Z,10.57
2023-04-08T05:50:15.404Z,10.69
2023-04-08T05:52:45.507Z,10.67
2023-04-08T05:55:13.050Z,10.66
2023-04-08T05:57:39.879Z,10.68
2023-04-08T06:00:08.241Z,10.72
2023-04-08T06:02:36.067Z,10.68
2023-04-08T06:05:03.818Z,10.72
2023-04-08T06:07:30.644Z,10.85
2023-04-08T06:09:57.040Z,11.00
2023-04-08T06:12:23.535Z,11.14
2023-04-08T06:14:54.595Z,11.28
2023-04-08T06:17:21.480Z,11.42
2023-04-08T06:19:47.981Z,11.42
2023-04-08T06:22:14.338Z,11.50
2023-04-08T06:24:40.874Z,11.60
2023-04-08T06:27:07.331Z,11.59
2023-04-08T06:29:33.861Z,11.62
2023-04-08T06:32:00.568Z,11.58
2023-04-08T06:34:26.984Z,11.65
2023-04-08T06:36:53.507Z,11.64
2023-04-08T06:39:21.274Z,11.70
2023-04-08T06:41:47.762Z,11.72
2023-04-08T06:44:14.296Z,11.84
2023-04-08T06:46:40.820Z,11.92
2023-04-08T06:49:07.791Z,12.07
2023-04-08T06:51:34.381Z,12.25
2023-04-08T06:54:00.721Z,12.24
2023-04-08T06:56:27.437Z,12.26
2023-04-08T06:58:53.805Z,12.38
2023-04-08T07:01:20.600Z,12.40
2023-04-08T07:03:47.376Z,12.46
2023-04-08T07:06:13.938Z,12.39
2023-04-08T07:08:40.588Z,12.43
2023-04-08T07:11:07.789Z,12.34
2023-04-08T07:13:34.255Z,12.27
2023-04-08T07:16:01.387Z,12.15
2023-04-08T07:18:27.766Z,12.09
2023-04-08T07:20:54.220Z,12.08
2023-04-08T07:23:20.645Z,11.98
2023-04-08T07:25:48.239Z,11.85
2023-04-08T07:28:14.650Z,11.72
2023-04-08T07:30:41.107Z,11.65
2023-04-08T07:33:07.565Z,11.55
2023-04-08T07:35:34.282Z,11.59
2023-04-08T07:38:01.083Z,11.67
2023-04-08T07:40:27.588Z,11.79
2023-04-08T07:42:54.358Z,11.83
2023-04-08T07:45:20.797Z,11.91
2023-04-08T07:47:47.457Z,11.92
2023-04-08T07:50:14.198Z,11.89
2023-04-08T07:52:40.640Z,11.84
2023-04-08T07:55:07.496Z,12.03
2023-04-08T07:57:34.096Z,12.18
2023-04-08T08:00:00.658Z,12.35
2023-04-08T08:02:27.152Z,12.41
2023-04-08T08:04:53.722Z,12.41
2023-04-08T08:07:20.279Z,12.38
2023-04-08T08:09:46.661Z,12.38
2023-04-08T08:12:13.300Z,12.43
2023-04-08T08:14:39.964Z,12.49
2023-04-08T08:17:06.361Z,12.47
2023-04-08T08:19:32.769Z,12.65
2023-04-08T08:21:59.194Z,12.74
2023-04-08T08:24:26.049Z,12.79
2023-04-08T08:26:52.431Z,12.89
2023-04-08T08:29:19.109Z,12.98
2023-04-08T08:31:45.656Z,13.10
2023-04-08T08:34:12.171Z,13.15
2023-04-08T08:36:38.645Z,13.17
2023-04-08T08:39:05.146Z,13.11
2023-04-08T08:41:38.024Z,13.22
2023-04-08T08:44:08.620Z,13.47
2023-04-08T08:46:35.447Z,13.86
2023-04-08T08:49:02.248Z,14.15
2023-04-08T08:51:28.786Z,14.35
2023-04-08T08:53:55.237Z,14.52
2023-04-08T08:56:22.056Z,14.52
2023-04-08T08:58:49.117Z,14.52
2023-04-08T09:01:34.910Z,14.99
2023-04-08T09:04:14.410Z,15.21
2023-04-08T09:06:41.259Z,15.27
2023-04-08T09:09:10.711Z,15.27
2023-04-08T09:11:42.638Z,15.14
2023-04-08T09:14:22.790Z,15.25
2023-04-08T09:16:49.514Z,15.11
2023-04-08T09:19:16.181Z,14.95
2023-04-08T09:21:42.713Z,14.99
2023-04-08T09:24:10.117Z,14.89
2023-04-08T09:26:37.584Z,14.92
2023-04-08T09:29:25.163Z,14.95
2023-04-08T09:31:57.820Z,15.17
2023-04-08T09:34:25.762Z,15.27
2023-04-08T09:36:53.608Z,15.46
2023-04-08T09:39:20.373Z,15.56
2023-04-08T09:41:51.095Z,15.91
2023-04-08T09:44:20.786Z,16.29
2023-04-08T09:46:50.365Z,15.86
2023-04-08T09:49:22.821Z,15.69
2023-04-08T09:51:53.614Z,15.99
2023-04-08T09:54:25.549Z,16.32
2023-04-08T09:57:05.477Z,16.89
2023-04-08T09:59:36.756Z,17.31
2023-04-08T10:02:09.566Z,17.31
2023-04-08T10:04:39.524Z,17.21
2023-04-08T10:07:08.451Z,17.24
2023-04-08T10:09:35.616Z,17.24
2023-04-08T10:12:04.287Z,17.41
2023-04-08T10:14:31.323Z,17.65
2023-04-08T10:17:27.715Z,17.65
2023-04-08T10:19:54.422Z,17.87
2023-04-08T10:22:30.041Z,18.00
2023-04-08T10:25:15.437Z,17.91
2023-04-08T10:27:42.066Z,17.88
2023-04-08T10:30:26.684Z,18.27
2023-04-08T10:32:56.903Z,17.77
2023-04-08T10:35:30.351Z,17.74
2023-04-08T10:37:58.662Z,17.75
2023-04-08T10:40:25.449Z,17.56
2023-04-08T10:42:58.781Z,17.38
2023-04-08T10:45:25.319Z,17.67
2023-04-08T10:47:52.169Z,17.47
2023-04-08T10:50:23.619Z,17.42
2023-04-08T10:52:54.328Z,17.49
2023-04-08T10:55:25.572Z,17.39
2023-04-08T10:57:52.946Z,17.28
2023-04-08T11:00:31.799Z,17.19
2023-04-08T11:03:02.954Z,17.17
2023-04-08T11:05:29.464Z,17.10
2023-04-08T11:07:55.953Z,16.95
2023-04-08T11:10:22.378Z,16.69
2023-04-08T11:12:49.836Z,16.35
2023-04-08T11:15:16.475Z,16.20
2023-04-08T11:17:43.782Z,15.93
2023-04-08T11:20:10.954Z,15.93
2023-04-08T11:22:37.428Z,15.86
2023-04-08T11:25:04.275Z,15.96
2023-04-08T11:27:31.032Z,15.79
2023-04-08T11:29:57.710Z,15.64
2023-04-08T11:32:24.175Z,15.45
2023-04-08T11:34:50.993Z,15.28
2023-04-08T11:37:17.521Z,15.36
2023-04-08T11:39:44.546Z,15.39
2023-04-08T11:42:29.885Z,15.37
2023-04-08T11:44:56.789Z,15.43
2023-04-08T11:47:31.925Z,15.35
2023-04-08T11:49:58.540Z,15.20
2023-04-08T11:52:44.887Z,14.78
2023-04-08T11:55:12.794Z,14.71
2023-04-08T11:57:39.552Z,14.63
2023-04-08T12:00:07.108Z,14.57
2023-04-08T12:02:33.679Z,14.34
2023-04-08T12:05:00.158Z,14.42
2023-04-08T12:07:26.998Z,14.44
2023-04-08T12:09:53.642Z,14.32
2023-04-08T12:12:20.006Z,14.24
2023-04-08T12:14:46.429Z,14.19
2023-04-08T12:17:12.839Z,14.04
2023-04-08T12:19:39.306Z,13.77
2023-04-08T12:22:05.966Z,13.60
2023-04-08T12:24:32.985Z,13.44
2023-04-08T12:26:59.416Z,13.12
2023-04-08T12:29:25.764Z,13.18
2023-04-08T12:31:53.336Z,13.23
2023-04-08T12:34:20.248Z,13.47
2023-04-08T12:36:47.754Z,13.64
2023-04-08T12:39:14.423Z,13.70
2023-04-08T12:41:40.878Z,13.89
2023-04-08T12:44:07.782Z,13.93
2023-04-08T12:46:34.468Z,14.11
2023-04-08T12:49:04.677Z,14.32
2023-04-08T12:51:32.291Z,14.48
2023-04-08T12:54:00.647Z,14.68
2023-04-08T12:56:27.141Z,14.73
2023-04-08T12:58:53.567Z,14.75
2023-04-08T13:01:20.024Z,14.77
2023-04-08T13:03:47.834Z,14.80
2023-04-08T13:06:14.558Z,14.90
2023-04-08T13:08:41.278Z,15.04
2023-04-08T13:11:08.430Z,15.14
2023-04-08T13:13:35.432Z,15.14
2023-04-08T13:16:02.401Z,14.93
2023-04-08T13:18:29.135Z,14.86
2023-04-08T13:20:55.555Z,14.88
2023-04-08T13:23:22.102Z,14.77
2023-04-08T13:25:48.596Z,14.69
2023-04-08T13:28:15.571Z,14.65
2023-04-08T13:30:42.568Z,14.58
2023-04-08T13:33:09.173Z,14.42
2023-04-08T13:35:35.696Z,14.20
2023-04-08T13:38:02.086Z,14.16
2023-04-08T13:40:28.805Z,14.04
2023-04-08T13:42:55.838Z,13.99
2023-04-08T13:45:22.406Z,13.97
2023-04-08T13:47:48.828Z,13.87
2023-04-08T13:50:15.700Z,13.96
2023-04-08T13:52:42.148Z,13.94
2023-04-08T13:55:08.596Z,13.96
2023-04-08T13:57:35.584Z,13.95
2023-04-08T14:00:02.229Z,13.82
2023-04-08T14:02:28.778Z,13.70
2023-04-08T14:04:55.524Z,13.60
2023-04-08T14:07:21.961Z,13.67
2023-04-08T14:09:48.333Z,13.64
2023-04-08T14:12:15.026Z,13.63
2023-04-08T14:14:41.513Z,13.81
2023-04-08T14:17:08.035Z,13.90
2023-04-08T14:19:35.010Z,13.97
2023-04-08T14:22:01.716Z,14.08
2023-04-08T14:24:28.166Z,13.96
2023-04-08T14:26:54.873Z,13.84
2023-04-08T14:29:21.250Z,13.87
2023-04-08T14:31:47.667Z,13.83
2023-04-08T14:34:14.098Z,13.89
2023-04-08T14:36:40.604Z,14.01
2023-04-08T14:39:07.213Z,13.97
2023-04-08T14:41:33.589Z,14.00
2023-04-08T14:44:00.005Z,14.12
2023-04-08T14:46:28.747Z,14.19
2023-04-08T14:48:55.459Z,14.35
2023-04-08T14:51:21.787Z,14.40
2023-04-08T14:53:48.272Z,14.39
2023-04-08T14:56:14.711Z,14.06
2023-04-08T14:58:41.107Z,14.33
2023-04-08T15:01:07.547Z,14.34
2023-04-08T15:03:34.311Z,14.39
2023-04-08T15:06:01.325Z,14.19
2023-04-08T15:08:27.925Z,14.44
2023-04-08T15:10:54.441Z,14.41
2023-04-08T15:13:20.901Z,14.29
2023-04-08T15:15:47.424Z,14.32
2023-04-08T15:18:14.148Z,14.35
2023-04-08T15:20:40.595Z,14.29
2023-04-08T15:23:07.827Z,14.25
2023-04-08T15:25:34.403Z,14.26
2023-04-08T15:28:02.595Z,14.12
2023-04-08T15:30:34.989Z,13.98
2023-04-08T15:33:05.077Z,14.03
2023-04-08T15:35:32.742Z,14.12
2023-04-08T15:37:59.310Z,14.06
2023-04-08T15:40:25.855Z,14.08
2023-04-08T15:42:52.881Z,13.97
2023-04-08T15:45:19.378Z,13.93
2023-04-08T15:47:46.063Z,13.84
2023-04-08T15:50:12.750Z,13.45
2023-04-08T15:52:39.411Z,13.15
2023-04-08T15:55:06.564Z,13.17
2023-04-08T15:57:33.243Z,12.96
2023-04-08T15:59:59.944Z,12.75
2023-04-08T16:02:26.390Z,12.72
2023-04-08T16:04:52.855Z,12.70
2023-04-08T16:07:19.294Z,12.65
2023-04-08T16:09:45.885Z,12.53
2023-04-08T16:12:12.484Z,12.58
2023-04-08T16:14:39.335Z,12.58
2023-04-08T16:17:06.302Z,12.49
2023-04-08T16:19:32.961Z,12.74
2023-04-08T16:21:59.348Z,12.90
2023-04-08T16:24:25.871Z,12.92
2023-04-08T16:26:52.605Z,13.02
2023-04-08T16:29:19.049Z,12.81
2023-04-08T16:31:45.573Z,12.90
2023-04-08T16:34:12.370Z,12.94
2023-04-08T16:36:38.881Z,12.72
2023-04-08T16:39:05.299Z,12.62
2023-04-08T16:41:31.750Z,12.73
2023-04-08T16:43:58.397Z,12.59
2023-04-08T16:46:24.928Z,12.68
2023-04-08T16:48:51.374Z,12.61
2023-04-08T16:51:18.653Z,12.73
2023-04-08T16:53:45.030Z,12.63
2023-04-08T16:56:17.593Z,12.47
2023-04-08T16:58:44.301Z,12.25
2023-04-08T17:01:13.987Z,12.03
2023-04-08T17:03:40.743Z,12.16
2023-04-08T17:06:08.708Z,12.19
2023-04-08T17:08:35.141Z,11.89
2023-04-08T17:11:10.378Z,11.83
2023-04-08T17:13:38.888Z,12.00
2023-04-08T17:16:05.549Z,12.09
2023-04-08T17:18:32.034Z,12.17
2023-04-08T17:20:58.714Z,11.90
2023-04-08T17:23:25.238Z,11.70
2023-04-08T17:25:51.694Z,11.43
2023-04-08T17:28:18.837Z,11.72
2023-04-08T17:30:45.221Z,11.57
2023-04-08T17:33:11.664Z,11.75
2023-04-08T17:35:38.174Z,11.77
2023-04-08T17:38:04.639Z,11.62
2023-04-08T17:40:31.268Z,11.63
2023-04-08T17:42:57.964Z,11.26
2023-04-08T17:45:25.347Z,11.01
2023-04-08T17:47:52.166Z,11.10
2023-04-08T17:50:18.799Z,10.53
2023-04-08T17:52:48.614Z,10.18
2023-04-08T17:55:15.425Z,9.85
2023-04-08T17:57:42.421Z,10.30
2023-04-08T18:00:09.243Z,10.26
2023-04-08T18:02:36.932Z,9.86
2023-04-08T18:05:04.190Z,10.23
2023-04-08T18:07:30.801Z,10.61
2023-04-08T18:09:57.278Z,10.85
2023-04-08T18:12:23.712Z,10.26
2023-04-08T18:14:50.095Z,10.60
2023-04-08T18:17:16.467Z,10.73
2023-04-08T18:19:42.983Z,10.60
2023-04-08T18:22:09.450Z,10.83
2023-04-08T18:24:37.174Z,11.00
2023-04-08T18:27:04.719Z,10.92
2023-04-08T18:29:31.716Z,10.75
2023-04-08T18:31:58.168Z,10.86
2023-04-08T18:34:25.346Z,10.91
2023-04-08T18:36:52.095Z,11.01
2023-04-08T18:39:18.838Z,10.98
2023-04-08T18:41:45.233Z,10.91
2023-04-08T18:44:12.066Z,10.86
2023-04-08T18:46:38.930Z,10.82
2023-04-08T18:49:05.544Z,10.73
2023-04-08T18:51:33.395Z,10.46
2023-04-08T18:53:59.778Z,10.66
2023-04-08T18:56:26.662Z,10.78
2023-04-08T18:58:54.673Z,10.88
2023-04-08T19:01:21.182Z,10.74
2023-04-08T19:03:47.723Z,10.73
2023-04-08T19:06:16.133Z,10.64
2023-04-08T19:08:42.564Z,10.39
2023-04-08T19:11:09.026Z,10.44
2023-04-08T19:13:35.420Z,10.52
2023-04-08T19:16:02.004Z,10.51
2023-04-08T19:18:28.447Z,10.43
2023-04-08T19:20:55.048Z,10.44
2023-04-08T19:23:21.504Z,10.63
2023-04-08T19:25:47.928Z,10.34
2023-04-08T19:28:14.444Z,10.45
2023-04-08T19:30:41.353Z,10.52
2023-04-08T19:33:08.916Z,10.52
2023-04-08T19:35:35.531Z,10.33
2023-04-08T19:38:02.323Z,10.33
2023-04-08T19:40:28.803Z,10.34
2023-04-08T19:42:55.478Z,10.43
2023-04-08T19:45:21.830Z,10.29
2023-04-08T19:47:49.082Z,10.36
2023-04-08T19:50:15.478Z,10.45
2023-04-08T19:52:41.967Z,10.52
2023-04-08T19:55:10.284Z,10.56
2023-04-08T19:57:37.103Z,10.45
2023-04-08T20:00:04.468Z,10.34
2023-04-08T20:02:31.110Z,10.52
2023-04-08T20:04:57.744Z,10.46
2023-04-08T20:07:24.455Z,10.24
2023-04-08T20:09:50.915Z,9.98
2023-04-08T20:12:17.293Z,10.28
2023-04-08T20:14:44.928Z,10.32
2023-04-08T20:17:12.406Z,10.27
2023-04-08T20:19:38.886Z,10.08
2023-04-08T20:22:05.246Z,10.16
2023-04-08T20:24:31.708Z,10.39
2023-04-08T20:26:59.008Z,10.47
2023-04-08T20:29:25.703Z,10.52
2023-04-08T20:31:52.210Z,10.47
2023-04-08T20:34:18.921Z,10.53
2023-04-08T20:36:45.412Z,10.58
2023-04-08T20:39:12.129Z,10.55
2023-04-08T20:41:38.651Z,10.56
2023-04-08T20:44:10.443Z,10.53
2023-04-08T20:46:37.897Z,10.49
2023-04-08T20:49:04.688Z,10.48
2023-04-08T20:51:33.623Z,10.31
2023-04-08T20:54:00.162Z,10.44
2023-04-08T20:56:26.637Z,10.36
2023-04-08T20:58:53.442Z,10.27
2023-04-08T21:01:20.318Z,10.35
2023-04-08T21:03:46.861Z,10.31
2023-04-08T21:06:19.851Z,10.29
2023-04-08T21:08:47.157Z,10.20
2023-04-08T21:11:14.362Z,10.21
2023-04-08T21:13:40.852Z,10.10
2023-04-08T21:16:07.661Z,10.12
2023-04-08T21:18:34.812Z,10.11
2023-04-08T21:21:01.522Z,10.15
2023-04-08T21:23:28.169Z,10.17
2023-04-08T21:25:54.645Z,10.08
2023-04-08T21:28:21.015Z,10.05
2023-04-08T21:30:47.350Z,10.08
2023-04-08T21:33:14.337Z,10.16
2023-04-08T21:35:41.014Z,10.16
2023-04-08T21:38:08.584Z,9.83
2023-04-08T21:40:35.201Z,10.02
2023-04-08T21:43:01.560Z,10.02
2023-04-08T21:45:28.060Z,10.03
2023-04-08T21:47:55.106Z,10.00
2023-04-08T21:50:21.620Z,9.89
2023-04-08T21:52:48.068Z,9.97
2023-04-08T21:55:14.701Z,9.89
2023-04-08T21:57:41.509Z,9.99
2023-04-08T22:00:13.160Z,10.00
2023-04-08T22:02:42.445Z,9.89
2023-04-08T22:07:50.335Z,9.64
2023-04-08T22:10:17.043Z,9.67
2023-04-08T22:12:43.444Z,9.45
2023-04-08T22:15:10.456Z,9.48
2023-04-08T22:17:36.903Z,9.50
2023-04-08T22:20:03.494Z,9.50
2023-04-08T22:22:29.953Z,9.40
2023-04-08T22:24:56.427Z,9.52
2023-04-08T22:27:23.102Z,9.52
2023-04-08T22:29:49.553Z,9.49
2023-04-08T22:32:18.088Z,9.48
2023-04-08T22:34:44.548Z,9.44
2023-04-08T22:37:11.799Z,9.47
2023-04-08T22:39:38.259Z,9.47
2023-04-08T22:42:04.716Z,9.45
2023-04-08T22:44:31.236Z,9.43
2023-04-08T22:46:57.721Z,9.38
2023-04-08T22:49:24.188Z,9.37
2023-04-08T22:51:50.822Z,9.36
2023-04-08T22:54:18.054Z,9.37
2023-04-08T22:56:44.511Z,9.35
2023-04-08T22:59:10.978Z,9.33
2023-04-08T23:01:37.564Z,9.14
2023-04-08T23:04:04.405Z,9.28
2023-04-08T23:06:31.257Z,9.37
2023-04-08T23:08:57.677Z,9.38
2023-04-08T23:11:24.114Z,9.41
2023-04-08T23:13:50.752Z,9.42
2023-04-08T23:16:17.267Z,9.39
2023-04-08T23:18:43.643Z,9.46
2023-04-08T23:21:10.144Z,9.39
2023-04-08T23:23:36.567Z,9.43
2023-04-08T23:26:03.004Z,9.43
2023-04-08T23:28:29.458Z,9.44
2023-04-08T23:30:56.137Z,9.41
2023-04-08T23:33:22.593Z,9.40
2023-04-08T23:35:49.089Z,9.37
2023-04-08T23:38:15.876Z,9.39
2023-04-08T23:40:42.265Z,9.39
2023-04-08T23:43:08.680Z,9.35
2023-04-08T23:45:35.186Z,9.37
2023-04-08T23:48:01.577Z,9.40
2023-04-08T23:50:27.996Z,9.40
2023-04-08T23:52:54.409Z,9.42
2023-04-08T23:55:20.870Z,9.43
2023-04-08T23:57:49.197Z,9.40
